Airfield :
LOGIN :

Register | Disclaimer

   EN    FR    IT 

 










Legend :    VFR   Marginal VFR   IFR   Intensive IFR   Very Intensive IFR
Visi :
Ceiling :
>= 8 km
>= 3000ft
5 to 8 km
1000 to 3000 ft
1500m to 5 km
500 to 1000 ft
800 to 1500m
200 to 500 ft
< 800m
< 200 ft
Symbols :   Thunderstorms  Fog  Heavy snow  Heavy precipitations  Wind > 20 kt
SIGMETs :     Misc.  Thunderstorms  Icing  Turbulence  Mountain Waves  Volcanic Ashes






- Airport Elevation : 659 ft
- IATA code : LYN


LFLY - Lyon Bron

CURRENT METAR :
  • 181200Z AUTO 02005KT 350V060 9999 FEW038 09/03 Q1028 NOSIG

EXPIRED METARs :
  • 181130Z AUTO 01004KT 320V060 9999 FEW023 08/03 Q1029 NOSIG
  • 181100Z AUTO 03005KT 360V070 9999 BKN023 BKN028 08/03 Q1029 NOSIG
  • 181030Z AUTO 04003KT 350V100 9999 FEW049 08/04 Q1030 NOSIG
  • 181000Z AUTO 07003KT 030V100 9999 FEW047 08/04 Q1030 NOSIG
  • 180930Z AUTO 08003KT 9999 BKN047 06/04 Q1030 NOSIG
  • 180900Z AUTO 24003KT 9999 BKN050 04/04 Q1030 NOSIG

TAF TAF LFLY
Valid from the 18 at 12:00 until the 19 at 12:00 UTC


181100Z 1812/1912 36007KT 9999 FEW017 SCT260
BECMG 1823/1901 BKN009
PROB30
TEMPO 1907/1909 4000 -DZ BKN004
BECMG 1909/1911 36017KT BKN014
ATIS : +33 4 72 15 87 96



MET'MAP, your aeronautical weather chart ! - Copyright ORBIFLY December 2007 - Disclaimer

ORBIFLY MET'MAP TEAM :

Programming & Development : Alexandra Zaïnal
Concept & original design : Baudouin d'Aumeries
Assistance for programming : Marc-Olivier Méhu
Technical & hardware support : Manuel Goepfert

Contact : metmap@orbifly.com




SOURCES & CREDITS :

   NOAA